Terminal Aerodrome Forecast
Issued by NWS

Current Version | Previous Version | Text Only | Print | Product List | Glossary On
Versions: 1 2 3 4 5 6 7 8 9 10 11 12 13 14 15 16 17 18 19 20 21 22 23 24 25
000
FTUS41 KOKX 272300
TAFTEB
TAF
KTEB 272322Z 2800/2824 20008KT P6SM FEW100 SCT250
     FM280300 VRB04KT P6SM SCT050 BKN150
     FM280600 34008KT P6SM FEW050
     FM281300 32011G16KT P6SM SKC
     FM282100 32013KT P6SM SKC=

USA.gov is the U.S. government's official web portal to all federal, state and local government web resources and services.